Time;durP1;ratioP1;P1;durP2;ratioP2;P2;SDS_P1;SDS_P2;PMS_P1;PMS_P2;Temp;Humidity;BMP_temperature;BMP_pressure;BME280_temperature;BME280_humidity;BME280_pressure;Samples;Min_cycle;Max_cycle;Signal;HPM_P1;HPM_P2
2024/02/09 00:02:08;;;;;;;7.45;3.13;;;11.20;1.00;;;;;;7365110;19;20018;-71
2024/02/09 00:04:38;;;;;;;9.80;3.03;;;11.10;1.00;;;;;;7364818;19;20850;-71
2024/02/09 00:07:08;;;;;;;10.18;3.17;;;11.10;1.00;;;;;;7366129;19;20006;-71
2024/02/09 00:09:41;;;;;;;7.57;3.30;;;11.10;1.00;;;;;;7366833;19;20507;-71
2024/02/09 00:12:11;;;;;;;7.30;2.45;;;11.10;1.00;;;;;;7365205;19;20018;-71
2024/02/09 00:14:44;;;;;;;9.52;3.03;;;11.00;1.00;;;;;;7364807;19;20019;-73
2024/02/09 00:17:14;;;;;;;6.85;2.38;;;11.00;1.00;;;;;;7366625;19;20011;-71
2024/02/09 00:19:46;;;;;;;9.55;3.05;;;11.00;1.00;;;;;;7367816;19;20466;-72
2024/02/09 00:22:17;;;;;;;11.50;3.15;;;11.00;1.00;;;;;;7366327;19;20049;-72
2024/02/09 00:24:50;;;;;;;11.15;2.85;;;11.00;1.00;;;;;;7367388;19;20011;-73
2024/02/09 00:27:21;;;;;;;10.18;3.03;;;11.00;1.00;;;;;;7367273;19;20372;-73
2024/02/09 00:29:53;;;;;;;12.20;3.03;;;11.00;1.00;;;;;;7367647;19;20015;-72
2024/02/09 00:32:24;;;;;;;7.38;3.28;;;10.90;1.00;;;;;;7363102;19;20006;-72
2024/02/09 00:34:54;;;;;;;9.75;3.30;;;10.90;1.00;;;;;;7365185;19;20065;-73
2024/02/09 00:37:26;;;;;;;12.90;3.90;;;10.80;1.00;;;;;;7365636;19;20031;-72
2024/02/09 00:39:59;;;;;;;10.32;3.38;;;10.80;1.00;;;;;;7367961;19;20007;-72
2024/02/09 00:42:29;;;;;;;11.52;3.13;;;10.80;1.00;;;;;;7368607;19;20010;-72
2024/02/09 00:45:01;;;;;;;7.57;2.80;;;10.80;1.00;;;;;;7371773;19;20313;-73
2024/02/09 00:47:33;;;;;;;10.77;3.15;;;10.80;1.00;;;;;;7373982;19;20014;-72
2024/02/09 00:50:03;;;;;;;8.40;2.90;;;10.70;1.00;;;;;;7376367;19;20094;-73
2024/02/09 00:52:34;;;;;;;8.35;2.60;;;10.80;1.00;;;;;;7375445;19;20133;-73
2024/02/09 00:55:08;;;;;;;10.30;2.97;;;10.80;1.00;;;;;;7372059;19;20015;-72
2024/02/09 00:57:38;;;;;;;10.55;3.47;;;10.80;1.00;;;;;;7374307;19;20011;-72
2024/02/09 01:00:10;;;;;;;11.60;3.65;;;10.80;1.00;;;;;;7373393;19;20019;-73
2024/02/09 01:02:40;;;;;;;9.48;3.10;;;10.70;1.00;;;;;;7371733;19;20030;-71
2024/02/09 01:05:13;;;;;;;13.05;3.58;;;10.70;1.00;;;;;;7372506;19;20015;-72
2024/02/09 01:07:44;;;;;;;7.93;3.15;;;10.70;1.00;;;;;;7371987;19;20014;-71
2024/02/09 01:10:17;;;;;;;10.38;3.53;;;10.70;1.00;;;;;;7372888;19;20471;-72
2024/02/09 02:45:12;;;;;;;8.07;3.50;;;9.80;95.30;;;;;;7370304;19;20048;-72
2024/02/09 03:04:18;;;;;;;9.63;4.43;;;9.80;98.20;;;;;;7370723;19;20412;-73
2024/02/09 03:04:23;;;;;;;9.23;3.50;;;9.70;99.90;;;;;;7370908;19;20351;-73
2024/02/09 03:06:53;;;;;;;13.02;4.43;;;9.70;99.90;;;;;;7368448;19;20021;-73
2024/02/09 03:09:43;;;;;;;12.23;4.15;;;9.70;99.90;;;;;;7373437;19;20470;-73
2024/02/09 03:12:14;;;;;;;12.65;4.65;;;9.60;96.00;;;;;;7371334;19;20014;-74
2024/02/09 03:14:44;;;;;;;18.00;4.90;;;9.70;96.40;;;;;;7370561;19;20042;-73
2024/02/09 03:17:14;;;;;;;9.52;4.00;;;9.70;97.50;;;;;;7370014;19;20742;-73
2024/02/09 03:19:47;;;;;;;15.48;4.25;;;9.70;96.40;;;;;;7371163;19;20010;-73
2024/02/09 03:22:17;;;;;;;15.23;3.47;;;9.60;97.30;;;;;;7370228;19;20006;-73
2024/02/09 03:24:47;;;;;;;8.07;3.35;;;9.70;98.10;;;;;;7370678;19;20373;-73
2024/02/09 03:27:17;;;;;;;9.95;3.40;;;9.80;98.10;;;;;;7371290;19;20010;-72
2024/02/09 03:29:47;;;;;;;11.23;3.38;;;9.80;97.60;;;;;;7367099;19;20036;-73
2024/02/09 03:32:17;;;;;;;9.65;3.03;;;9.80;96.00;;;;;;7370031;19;20425;-73
2024/02/09 03:34:50;;;;;;;8.88;2.92;;;9.90;90.90;;;;;;7370137;19;20010;-73
2024/02/09 03:37:22;;;;;;;8.00;2.92;;;9.90;84.30;;;;;;7370852;19;20080;-72
2024/02/09 03:39:52;;;;;;;7.43;3.40;;;9.80;88.80;;;;;;7371973;19;20368;-73
2024/02/09 03:42:23;;;;;;;10.30;3.45;;;9.80;92.30;;;;;;7370333;19;20015;-73
2024/02/09 03:44:54;;;;;;;8.48;3.55;;;9.80;93.40;;;;;;7370515;19;20021;-73
2024/02/09 03:47:26;;;;;;;9.27;2.97;;;9.90;93.90;;;;;;7370215;19;20010;-72
2024/02/09 03:49:59;;;;;;;9.95;3.47;;;9.90;93.20;;;;;;7367488;19;20453;-72
2024/02/09 03:52:29;;;;;;;15.10;3.45;;;9.90;93.60;;;;;;7367554;19;20017;-73
2024/02/09 03:54:59;;;;;;;8.10;2.95;;;9.90;94.00;;;;;;7367385;19;20003;-73
2024/02/09 03:57:31;;;;;;;8.77;3.17;;;10.00;93.20;;;;;;7367201;19;20028;-73
2024/02/09 04:00:02;;;;;;;9.55;3.17;;;9.90;94.90;;;;;;7370283;19;20664;-73
2024/02/09 04:02:40;;;;;;;8.32;2.85;;;9.90;93.80;;;;;;7366535;19;20022;-73
2024/02/09 04:05:13;;;;;;;8.43;2.95;;;9.90;93.90;;;;;;7368362;19;20014;-74
2024/02/09 04:07:44;;;;;;;8.98;2.88;;;9.90;96.00;;;;;;7369178;19;20010;-73
2024/02/09 04:10:14;;;;;;;5.03;2.60;;;10.00;99.10;;;;;;7373721;19;20010;-73
2024/02/09 04:13:06;;;;;;;8.48;3.10;;;10.00;99.90;;;;;;7374123;19;20011;-73
2024/02/09 04:15:36;;;;;;;8.82;2.55;;;10.00;99.90;;;;;;7376726;19;20491;-73
2024/02/09 04:18:07;;;;;;;8.95;3.45;;;10.00;99.90;;;;;;7382667;19;20017;-73
2024/02/09 04:20:41;;;;;;;7.65;2.53;;;10.00;98.10;;;;;;7383465;19;20013;-72
2024/02/09 04:23:12;;;;;;;5.95;2.70;;;10.10;97.10;;;;;;7380977;19;20014;-72
2024/02/09 04:25:43;;;;;;;9.18;3.30;;;10.10;96.50;;;;;;7380046;19;20115;-72
2024/02/09 04:28:17;;;;;;;6.97;2.97;;;10.10;93.20;;;;;;7382445;19;20015;-72
2024/02/09 04:30:48;;;;;;;13.15;3.55;;;10.10;85.50;;;;;;7377409;19;20035;-72
2024/02/09 04:33:18;;;;;;;10.27;2.75;;;10.10;85.90;;;;;;7379836;19;20467;-71
2024/02/09 04:35:52;;;;;;;7.97;2.88;;;10.10;88.10;;;;;;7380227;19;20014;-71
2024/02/09 04:38:22;;;;;;;5.57;2.55;;;10.20;85.30;;;;;;7383805;19;20010;-72
2024/02/09 04:40:53;;;;;;;6.20;2.17;;;10.10;80.50;;;;;;7381599;19;20018;-71
2024/02/09 04:43:23;;;;;;;5.50;2.20;;;10.10;88.20;;;;;;7382064;19;20088;-71
2024/02/09 04:45:54;;;;;;;4.18;1.80;;;10.20;81.60;;;;;;7382594;19;20027;-71
2024/02/09 04:48:24;;;;;;;5.13;2.30;;;10.30;68.20;;;;;;7382749;19;20010;-72
2024/02/09 04:50:56;;;;;;;7.07;1.75;;;10.30;56.30;;;;;;7376677;19;20031;-71
2024/02/09 04:53:26;;;;;;;4.95;1.80;;;10.30;52.70;;;;;;7377543;19;20028;-71
2024/02/09 04:55:56;;;;;;;4.32;2.20;;;10.30;48.10;;;;;;7381388;19;20002;-72
2024/02/09 04:58:26;;;;;;;5.97;2.33;;;10.30;34.90;;;;;;7382907;19;20011;-72
2024/02/09 05:00:56;;;;;;;4.25;1.85;;;10.30;34.10;;;;;;7381897;19;20020;-71
2024/02/09 05:03:26;;;;;;;4.47;2.00;;;10.30;33.50;;;;;;7381235;19;20014;-72
2024/02/09 05:05:59;;;;;;;5.13;2.08;;;10.40;26.30;;;;;;7380941;19;20007;-71
2024/02/09 05:08:29;;;;;;;4.68;2.20;;;10.40;24.50;;;;;;7377949;19;20034;-71
2024/02/09 05:10:59;;;;;;;5.63;1.70;;;10.40;22.00;;;;;;7377228;19;20034;-70
2024/02/09 05:13:29;;;;;;;4.38;1.75;;;10.40;12.70;;;;;;7379615;19;20010;-71
2024/02/09 05:16:00;;;;;;;3.88;1.95;;;10.50;1.00;;;;;;7355886;19;20035;-72
2024/02/09 05:18:30;;;;;;;3.67;1.45;;;10.60;1.00;;;;;;7378709;19;20002;-71
2024/02/09 05:21:03;;;;;;;6.72;1.88;;;10.60;1.00;;;;;;7379930;19;20403;-72
2024/02/09 05:23:33;;;;;;;3.92;1.73;;;10.60;1.00;;;;;;7378127;19;20499;-71
2024/02/09 05:26:03;;;;;;;3.53;1.70;;;10.50;1.00;;;;;;7378629;19;20019;-72
2024/02/09 05:28:36;;;;;;;3.92;1.70;;;10.50;1.00;;;;;;7378746;19;20007;-72
2024/02/09 05:31:06;;;;;;;4.95;2.10;;;10.50;1.00;;;;;;7374703;19;20015;-72
2024/02/09 05:33:37;;;;;;;5.15;1.92;;;10.60;1.00;;;;;;7370575;19;20086;-71
2024/02/09 05:36:19;;;;;;;4.40;1.67;;;10.60;1.00;;;;;;7371632;19;20014;-72
2024/02/09 05:38:50;;;;;;;3.88;1.48;;;10.60;1.00;;;;;;7370853;19;20113;-70
2024/02/09 05:41:21;;;;;;;3.80;1.45;;;10.60;1.00;;;;;;7371408;19;20098;-71
2024/02/09 05:43:54;;;;;;;4.97;1.50;;;10.60;1.00;;;;;;7370988;19;20796;-72
2024/02/09 05:46:25;;;;;;;2.50;1.45;;;10.70;1.00;;;;;;7371557;19;20477;-72
2024/02/09 05:48:56;;;;;;;2.38;1.25;;;10.70;1.00;;;;;;7372044;19;20014;-72
2024/02/09 05:51:29;;;;;;;5.75;1.98;;;10.70;1.00;;;;;;7373031;19;20232;-73
2024/02/09 05:53:59;;;;;;;2.15;1.30;;;10.70;1.00;;;;;;7367354;19;20078;-71
2024/02/09 05:56:30;;;;;;;3.42;1.40;;;10.70;1.00;;;;;;7372496;19;20042;-71
2024/02/09 05:59:04;;;;;;;4.20;1.58;;;10.70;1.00;;;;;;7369742;19;20010;-71
2024/02/09 06:01:38;;;;;;;3.97;1.50;;;10.70;1.00;;;;;;7372963;19;20475;-72
2024/02/09 06:04:08;;;;;;;3.97;1.30;;;10.70;1.00;;;;;;7370084;19;20031;-71
2024/02/09 06:06:47;;;;;;;3.80;1.45;;;10.70;1.00;;;;;;7370362;19;20018;-71
2024/02/09 06:09:18;;;;;;;4.53;1.55;;;10.70;1.00;;;;;;7369321;19;20002;-71
2024/02/09 06:11:48;;;;;;;2.45;1.30;;;10.80;1.00;;;;;;7368167;19;20011;-72
2024/02/09 06:14:19;;;;;;;3.42;1.50;;;10.80;1.00;;;;;;7368996;19;20513;-70
2024/02/09 06:16:49;;;;;;;2.72;1.35;;;10.80;1.00;;;;;;7370171;19;20481;-72
2024/02/09 06:19:23;;;;;;;3.03;1.38;;;10.80;1.00;;;;;;7369462;19;20014;-71
2024/02/09 06:21:56;;;;;;;2.90;1.58;;;10.80;1.00;;;;;;7368331;19;20431;-72
2024/02/09 06:24:26;;;;;;;2.53;1.25;;;10.80;1.00;;;;;;7368559;19;20349;-72
2024/02/09 06:26:56;;;;;;;2.15;1.30;;;10.90;1.00;;;;;;7367995;19;20006;-71
2024/02/09 06:29:27;;;;;;;2.70;1.40;;;10.90;1.00;;;;;;7367271;19;20070;-71
2024/02/09 06:32:03;;;;;;;2.17;1.40;;;10.90;1.00;;;;;;7370233;19;20049;-71
2024/02/09 06:34:33;;;;;;;2.75;1.20;;;11.00;1.00;;;;;;7368973;19;20007;-71
2024/02/09 06:37:06;;;;;;;2.35;1.27;;;11.00;1.00;;;;;;7371717;19;20065;-71
2024/02/09 06:39:36;;;;;;;2.97;1.30;;;11.00;1.00;;;;;;7369053;19;20021;-71
2024/02/09 06:42:06;;;;;;;2.35;1.40;;;11.10;1.00;;;;;;7370107;19;20010;-71
2024/02/09 06:44:42;;;;;;;3.25;1.40;;;11.10;1.00;;;;;;7369395;19;20003;-73
2024/02/09 06:47:12;;;;;;;1.98;1.08;;;11.00;1.00;;;;;;7366832;19;20481;-70
2024/02/09 06:49:45;;;;;;;3.03;1.42;;;11.10;1.00;;;;;;7367765;19;20404;-70
2024/02/09 06:52:18;;;;;;;2.13;1.27;;;11.10;1.00;;;;;;7366212;19;20010;-69
2024/02/09 06:54:48;;;;;;;3.10;1.08;;;11.10;1.00;;;;;;7368294;19;20471;-72
2024/02/09 06:57:22;;;;;;;2.95;1.10;;;11.10;1.00;;;;;;7367428;19;20027;-71
2024/02/09 06:59:53;;;;;;;2.05;0.85;;;11.10;1.00;;;;;;7368625;19;20017;-71
2024/02/09 07:02:23;;;;;;;2.88;1.25;;;11.10;1.00;;;;;;7366935;19;20007;-72
2024/02/09 07:05:00;;;;;;;2.30;1.20;;;11.10;1.00;;;;;;7373376;19;20462;-72
2024/02/09 07:07:38;;;;;;;2.35;1.65;;;11.20;1.00;;;;;;7377987;19;20030;-71
2024/02/09 07:10:09;;;;;;;2.20;1.10;;;11.10;1.00;;;;;;7377826;19;20015;-71
2024/02/09 07:12:39;;;;;;;3.22;1.38;;;11.10;1.00;;;;;;7372724;19;20350;-70
2024/02/09 07:15:10;;;;;;;2.75;1.30;;;11.10;1.00;;;;;;7375598;19;20444;-71
2024/02/09 07:17:40;;;;;;;4.65;1.38;;;11.00;1.00;;;;;;7374968;19;20086;-71
2024/02/09 07:20:16;;;;;;;3.78;1.48;;;11.10;1.00;;;;;;7371782;19;20542;-71
2024/02/09 07:22:51;;;;;;;3.63;1.90;;;11.10;1.00;;;;;;7372344;19;20020;-72
2024/02/09 07:25:21;;;;;;;2.38;1.20;;;11.10;1.00;;;;;;7371995;19;20467;-70
2024/02/09 07:27:51;;;;;;;2.83;1.42;;;11.10;1.00;;;;;;7372931;19;20082;-70
2024/02/09 07:30:21;;;;;;;3.35;1.48;;;11.10;1.00;;;;;;7374108;19;20039;-71
2024/02/09 07:32:51;;;;;;;2.67;1.15;;;11.00;1.00;;;;;;7375020;19;20030;-71
2024/02/09 07:35:21;;;;;;;4.65;1.48;;;11.00;1.00;;;;;;7374928;19;20479;-72
2024/02/09 07:37:55;;;;;;;2.83;1.13;;;11.00;1.00;;;;;;7376523;19;20035;-70
2024/02/09 07:40:25;;;;;;;4.72;1.40;;;11.00;1.00;;;;;;7375260;19;20010;-71
2024/02/09 07:42:55;;;;;;;2.03;1.30;;;11.00;1.00;;;;;;7373416;19;20003;-71
2024/02/09 07:45:25;;;;;;;1.80;1.23;;;11.00;1.00;;;;;;7374087;19;20042;-71
2024/02/09 07:47:59;;;;;;;2.38;1.30;;;11.10;1.00;;;;;;7375114;19;20027;-71
2024/02/09 07:50:30;;;;;;;3.03;1.55;;;11.00;1.00;;;;;;7374244;19;20021;-71
2024/02/09 07:53:02;;;;;;;4.50;2.45;;;11.00;1.00;;;;;;7374848;19;20010;-71
2024/02/09 07:55:32;;;;;;;2.45;1.40;;;11.00;1.00;;;;;;7374188;19;20127;-71
2024/02/09 07:58:03;;;;;;;4.10;1.50;;;11.00;1.00;;;;;;7375863;19;20483;-69
2024/02/09 08:00:33;;;;;;;3.30;1.48;;;11.00;1.00;;;;;;7376391;19;20109;-71
2024/02/09 08:03:02;;;;;;;3.38;1.63;;;11.00;1.00;;;;;;7374502;19;20397;-70
2024/02/09 08:05:35;;;;;;;4.13;1.52;;;11.00;1.00;;;;;;7373353;19;20021;-71
2024/02/09 08:08:09;;;;;;;2.58;1.38;;;11.00;1.00;;;;;;7376168;19;20007;-70
2024/02/09 08:10:40;;;;;;;4.40;1.65;;;11.10;1.00;;;;;;7375639;19;20033;-70
2024/02/09 08:13:11;;;;;;;3.70;1.67;;;11.10;1.00;;;;;;7373359;19;20026;-70
2024/02/09 08:15:41;;;;;;;6.13;1.70;;;11.20;1.00;;;;;;7373139;19;20317;-70
2024/02/09 08:18:11;;;;;;;11.40;2.97;;;11.20;1.00;;;;;;7375646;19;20010;-70
2024/02/09 08:20:41;;;;;;;6.75;1.98;;;11.30;1.00;;;;;;7374137;19;20006;-70
2024/02/09 08:23:14;;;;;;;5.55;2.13;;;11.30;1.00;;;;;;7374329;19;20366;-70
2024/02/09 08:25:44;;;;;;;5.20;1.52;;;11.30;1.00;;;;;;7372521;19;20468;-70
2024/02/09 08:28:14;;;;;;;19.40;12.38;;;11.30;1.00;;;;;;7374698;19;20060;-71
2024/02/09 08:30:44;;;;;;;5.07;1.70;;;11.40;1.00;;;;;;7375653;19;20352;-70
2024/02/09 08:33:14;;;;;;;1.88;1.38;;;11.40;1.00;;;;;;7373232;19;20010;-70
2024/02/09 08:35:44;;;;;;;2.92;1.30;;;11.40;1.00;;;;;;7373890;19;20010;-70
2024/02/09 08:38:17;;;;;;;4.93;1.10;;;11.40;1.00;;;;;;7376236;19;20018;-71
2024/02/09 08:40:48;;;;;;;2.30;1.42;;;11.50;1.00;;;;;;7375222;19;20034;-71
2024/02/09 08:43:18;;;;;;;2.67;1.30;;;11.50;1.00;;;;;;7374165;19;20031;-70
2024/02/09 08:45:48;;;;;;;3.35;1.17;;;11.60;1.00;;;;;;7372096;19;20007;-70
2024/02/09 08:48:18;;;;;;;2.40;1.40;;;11.60;1.00;;;;;;7373967;19;20499;-71
2024/02/09 08:50:50;;;;;;;3.85;1.63;;;11.70;1.00;;;;;;7373619;19;20015;-70
2024/02/09 08:53:22;;;;;;;5.85;1.50;;;11.80;1.00;;;;;;7373305;19;20078;-71
2024/02/09 08:55:52;;;;;;;2.75;1.40;;;11.80;1.00;;;;;;7373027;19;20014;-71
2024/02/09 08:58:22;;;;;;;2.65;1.60;;;11.80;1.00;;;;;;7374080;19;20017;-71
2024/02/09 09:00:52;;;;;;;3.53;1.10;;;11.80;1.00;;;;;;7375081;19;20453;-71
2024/02/09 09:03:35;;;;;;;2.38;1.20;;;11.80;1.00;;;;;;7373350;19;20090;-71
2024/02/09 09:06:07;;;;;;;3.97;1.40;;;11.80;1.00;;;;;;7372573;19;20428;-70
2024/02/09 09:08:41;;;;;;;3.72;1.60;;;11.80;1.00;;;;;;7370248;19;20010;-70
2024/02/09 09:11:12;;;;;;;1.83;1.13;;;11.80;1.00;;;;;;7372174;19;20102;-71
2024/02/09 09:13:43;;;;;;;2.95;1.33;;;11.90;1.00;;;;;;7367700;19;20481;-71
2024/02/09 09:16:16;;;;;;;2.70;1.17;;;11.90;1.00;;;;;;7370385;19;20077;-71
2024/02/09 09:18:50;;;;;;;4.30;1.10;;;12.00;1.00;;;;;;7372649;19;20024;-70
2024/02/09 09:21:20;;;;;;;;;;;12.10;1.00;;;;;;7373050;19;20721;-71
2024/02/09 09:23:53;;;;;;;2.38;0.93;;;12.20;1.00;;;;;;7369251;19;20340;-70
2024/02/09 09:26:23;;;;;;;3.88;1.25;;;12.30;1.00;;;;;;7370878;19;20078;-71
2024/02/09 09:28:58;;;;;;;3.65;1.33;;;12.30;1.00;;;;;;7368646;19;20027;-72
2024/02/09 09:31:29;;;;;;;4.57;1.55;;;12.30;1.00;;;;;;7369978;19;20011;-71
2024/02/09 09:34:00;;;;;;;3.15;1.60;;;12.30;1.00;;;;;;7366423;19;20485;-71
2024/02/09 09:36:31;;;;;;;2.70;1.80;;;12.40;1.00;;;;;;7369650;19;20257;-69
2024/02/09 09:39:06;;;;;;;3.70;1.83;;;12.50;1.00;;;;;;7369603;19;20086;-72
2024/02/09 09:41:40;;;;;;;5.65;1.73;;;12.60;1.00;;;;;;7369517;19;20014;-71
2024/02/09 09:44:10;;;;;;;;;;;12.60;1.00;;;;;;7369682;19;20021;-70
2024/02/09 09:46:45;;;;;;;6.10;2.00;;;12.70;1.00;;;;;;7367971;19;20788;-69
2024/02/09 09:49:16;;;;;;;3.30;1.40;;;12.70;1.00;;;;;;7370507;19;20170;-70
2024/02/09 09:51:52;;;;;;;3.70;1.60;;;12.90;1.00;;;;;;7369270;19;20006;-70
2024/02/09 09:54:25;;;;;;;7.70;4.22;;;12.90;1.00;;;;;;7370492;19;20019;-70
2024/02/09 09:56:57;;;;;;;2.40;1.63;;;13.00;1.00;;;;;;7368347;19;20035;-69
2024/02/09 09:59:27;;;;;;;6.05;1.60;;;13.00;1.00;;;;;;7371471;19;20323;-70
2024/02/09 10:01:57;;;;;;;5.35;1.80;;;13.00;1.00;;;;;;7370193;19;20481;-71
2024/02/09 10:04:28;;;;;;;4.03;1.60;;;13.10;1.00;;;;;;7371299;19;20082;-70
2024/02/09 10:06:58;;;;;;;4.85;1.92;;;13.00;1.00;;;;;;7370798;19;20490;-70
2024/02/09 10:09:31;;;;;;;4.68;1.65;;;13.10;1.00;;;;;;7370562;19;20045;-70
2024/02/09 10:12:06;;;;;;;4.30;1.45;;;13.10;1.00;;;;;;7364569;19;20014;-70
2024/02/09 10:14:39;;;;;;;5.38;1.85;;;13.10;1.00;;;;;;7366135;19;20034;-70
2024/02/09 10:17:11;;;;;;;6.38;2.30;;;13.10;1.00;;;;;;7369865;19;20102;-70
2024/02/09 10:19:41;;;;;;;4.28;1.77;;;13.10;1.00;;;;;;7369497;19;20014;-70
2024/02/09 10:22:11;;;;;;;4.50;1.77;;;13.20;1.00;;;;;;7367208;19;20010;-71
2024/02/09 10:24:57;;;;;;;6.50;1.90;;;13.20;1.00;;;;;;7367823;19;20014;-71
2024/02/09 10:27:27;;;;;;;16.23;3.13;;;13.20;1.00;;;;;;7369402;19;20077;-71
2024/02/09 10:29:58;;;;;;;5.43;1.40;;;13.20;1.00;;;;;;7370244;19;20311;-70
2024/02/09 10:32:32;;;;;;;4.90;1.73;;;13.20;1.00;;;;;;7365300;19;20017;-73
2024/02/09 10:35:02;;;;;;;7.03;1.67;;;13.20;1.00;;;;;;7368145;19;20456;-70
2024/02/09 10:37:32;;;;;;;4.93;1.67;;;13.20;1.00;;;;;;7369585;19;20018;-71
2024/02/09 10:40:06;;;;;;;5.07;1.70;;;13.20;1.00;;;;;;7366353;19;20011;-71
2024/02/09 10:42:40;;;;;;;7.50;1.95;;;13.20;1.00;;;;;;7365784;19;20090;-71
2024/02/09 10:45:13;;;;;;;8.63;2.13;;;13.20;1.00;;;;;;7365873;19;20072;-72
2024/02/09 10:47:54;;;;;;;4.43;1.60;;;13.20;1.00;;;;;;7367707;19;20014;-70
2024/02/09 10:50:28;;;;;;;5.03;1.98;;;13.20;1.00;;;;;;7367728;19;20804;-71
2024/02/09 10:53:05;;;;;;;4.72;1.48;;;13.30;1.00;;;;;;7366270;19;20017;-71
2024/02/09 10:55:44;;;;;;;3.97;1.35;;;13.30;1.00;;;;;;7364643;19;19999;-70
2024/02/09 10:58:15;;;;;;;4.70;1.70;;;13.30;1.00;;;;;;7368290;19;20018;-71
2024/02/09 11:00:46;;;;;;;5.50;1.60;;;13.40;1.00;;;;;;7367538;19;20015;-71
2024/02/09 11:03:16;;;;;;;5.45;1.95;;;13.30;1.00;;;;;;7366417;19;20014;-70
2024/02/09 11:05:46;;;;;;;8.82;2.42;;;13.30;1.00;;;;;;7365050;19;20034;-71
2024/02/09 11:08:17;;;;;;;5.15;2.20;;;13.40;1.00;;;;;;7367640;19;20014;-71
2024/02/09 11:11:00;;;;;;;8.10;2.30;;;13.50;1.00;;;;;;7369106;19;20017;-71
2024/02/09 11:13:30;;;;;;;5.65;1.80;;;13.60;1.00;;;;;;7368060;19;20006;-71
2024/02/09 11:16:02;;;;;;;7.88;1.88;;;13.70;1.00;;;;;;7366471;19;20532;-71
2024/02/09 11:18:33;;;;;;;3.70;1.38;;;13.70;1.00;;;;;;7368204;19;20006;-71
2024/02/09 11:21:07;;;;;;;6.90;1.60;;;13.70;1.00;;;;;;7367647;19;20505;-71
2024/02/09 11:23:40;;;;;;;12.35;2.28;;;13.70;1.00;;;;;;7366685;19;21015;-71
2024/02/09 11:26:16;;;;;;;6.18;1.40;;;13.70;1.00;;;;;;7365516;19;20080;-71
2024/02/09 11:28:46;;;;;;;2.67;1.38;;;13.70;1.00;;;;;;7365490;19;20031;-70
2024/02/09 11:31:20;;;;;;;6.15;1.55;;;13.70;1.00;;;;;;7369964;19;20010;-70
2024/02/09 11:33:50;;;;;;;4.45;1.70;;;13.70;1.00;;;;;;7366152;19;20086;-71
2024/02/09 11:36:23;;;;;;;10.00;2.70;;;13.70;1.00;;;;;;7365549;19;20394;-71
2024/02/09 11:38:57;;;;;;;3.60;1.58;;;13.70;1.00;;;;;;7367382;19;20021;-72
2024/02/09 11:41:30;;;;;;;8.07;1.55;;;13.90;1.00;;;;;;7366855;19;20018;-71
2024/02/09 11:44:00;;;;;;;12.13;2.05;;;13.90;1.00;;;;;;7364957;19;20018;-71
2024/02/09 11:46:35;;;;;;;6.40;1.80;;;13.80;1.00;;;;;;7366453;19;20811;-72
2024/02/09 11:49:07;;;;;;;5.20;1.63;;;13.80;1.00;;;;;;7367901;19;20014;-71
2024/02/09 11:51:37;;;;;;;24.08;2.42;;;13.70;1.00;;;;;;7366111;19;20014;-71
2024/02/09 11:54:10;;;;;;;4.53;1.80;;;13.60;1.00;;;;;;7366708;19;20491;-70
2024/02/09 11:56:43;;;;;;;9.95;3.95;;;13.60;1.00;;;;;;7365602;19;20148;-72
2024/02/09 11:59:14;;;;;;;7.82;2.20;;;13.60;1.00;;;;;;7367022;19;20528;-71
2024/02/09 12:01:44;;;;;;;4.45;1.60;;;13.60;1.00;;;;;;7364511;19;20014;-71
2024/02/09 12:04:15;;;;;;;5.65;1.60;;;13.50;1.00;;;;;;7365119;19;20460;-70
2024/02/09 12:06:45;;;;;;;5.15;1.95;;;13.50;1.00;;;;;;7366303;19;20014;-70
2024/02/09 12:09:15;;;;;;;9.13;1.88;;;13.50;1.00;;;;;;7366753;19;20378;-71
2024/02/09 12:11:50;;;;;;;6.22;1.95;;;13.50;1.00;;;;;;7363655;19;20344;-71
2024/02/09 12:14:20;;;;;;;3.70;1.85;;;13.50;1.00;;;;;;7365571;19;20074;-72
2024/02/09 12:16:50;;;;;;;4.47;1.42;;;13.50;1.00;;;;;;7366828;19;20047;-72
2024/02/09 12:19:20;;;;;;;6.68;1.52;;;13.40;1.00;;;;;;7366067;19;20385;-71
2024/02/09 12:21:51;;;;;;;3.30;1.27;;;13.50;1.00;;;;;;7364970;19;20030;-71
2024/02/09 12:24:22;;;;;;;4.32;1.60;;;13.50;1.00;;;;;;7363556;19;20006;-71
2024/02/09 12:26:55;;;;;;;5.40;2.70;;;13.50;1.00;;;;;;7365577;19;20014;-71
2024/02/09 12:29:27;;;;;;;4.85;1.80;;;13.40;1.00;;;;;;7365888;19;20112;-71
2024/02/09 12:31:57;;;;;;;7.28;2.13;;;13.30;1.00;;;;;;7363395;19;20002;-72
2024/02/09 12:34:28;;;;;;;6.28;1.67;;;13.40;1.00;;;;;;7364194;19;20040;-72
2024/02/09 12:36:59;;;;;;;6.35;1.77;;;13.40;1.00;;;;;;7367912;19;20018;-71
2024/02/09 12:39:29;;;;;;;4.38;1.60;;;13.40;1.00;;;;;;7371956;19;20050;-70
2024/02/09 12:42:03;;;;;;;5.68;1.55;;;13.40;1.00;;;;;;7372804;19;20035;-70
2024/02/09 12:44:33;;;;;;;6.32;1.90;;;13.40;1.00;;;;;;7366713;19;20033;-72
2024/02/09 12:47:05;;;;;;;5.72;1.50;;;13.30;1.00;;;;;;7372590;19;20089;-71
2024/02/09 12:49:36;;;;;;;3.47;1.50;;;13.30;1.00;;;;;;7371640;19;20427;-71
2024/02/09 12:52:14;;;;;;;5.28;1.35;;;13.20;1.00;;;;;;7370495;19;20013;-73
2024/02/09 12:54:45;;;;;;;2.60;1.30;;;13.20;1.00;;;;;;7370436;19;20026;-73
2024/02/09 12:57:18;;;;;;;4.80;1.75;;;13.00;1.00;;;;;;7372039;19;20034;-70
2024/02/09 12:59:48;;;;;;;2.95;1.85;;;12.90;1.00;;;;;;7372391;19;20380;-71
2024/02/09 13:02:22;;;;;;;4.53;1.98;;;12.90;1.00;;;;;;7371372;19;20022;-72
2024/02/09 13:04:53;;;;;;;4.30;1.80;;;12.80;1.00;;;;;;7371123;19;20011;-71
2024/02/09 13:07:23;;;;;;;4.93;1.60;;;12.70;1.00;;;;;;7372669;19;20011;-71
2024/02/09 13:09:53;;;;;;;3.95;1.55;;;12.70;1.00;;;;;;7372517;19;20488;-71
2024/02/09 13:12:26;;;;;;;5.57;2.28;;;12.70;1.00;;;;;;7370322;19;20011;-70
2024/02/09 13:14:59;;;;;;;13.80;2.58;;;12.60;1.00;;;;;;7373334;19;20031;-70
2024/02/09 13:17:29;;;;;;;25.40;3.60;;;12.50;1.00;;;;;;7372767;19;20026;-69
2024/02/09 13:19:59;;;;;;;33.17;4.22;;;12.50;1.00;;;;;;7372928;19;20020;-71
2024/02/09 13:22:29;;;;;;;10.23;2.50;;;12.50;1.00;;;;;;7371494;19;20467;-71
2024/02/09 13:24:59;;;;;;;16.23;2.83;;;12.50;1.00;;;;;;7370183;19;20010;-71
2024/02/09 13:27:32;;;;;;;7.13;2.95;;;12.50;1.00;;;;;;7371800;19;20029;-72
2024/02/09 13:30:05;;;;;;;7.03;3.55;;;12.40;1.00;;;;;;7373262;19;20022;-71
2024/02/09 13:32:35;;;;;;;10.40;3.78;;;12.50;1.00;;;;;;7368487;19;20015;-71
2024/02/09 13:35:11;;;;;;;5.90;3.00;;;12.40;1.00;;;;;;7368754;19;20021;-71
2024/02/09 13:37:44;;;;;;;10.50;3.35;;;12.50;1.00;;;;;;7370827;19;20014;-71
2024/02/09 13:40:17;;;;;;;11.07;2.75;;;12.50;1.00;;;;;;7371076;19;20023;-71
2024/02/09 13:42:51;;;;;;;7.38;2.22;;;12.50;1.00;;;;;;7369719;19;20062;-71
2024/02/09 13:45:25;;;;;;;9.85;6.63;;;12.50;1.00;;;;;;7369533;19;20078;-71
2024/02/09 13:47:56;;;;;;;10.20;3.22;;;12.50;1.00;;;;;;7374523;19;20026;-71
2024/02/09 13:50:26;;;;;;;6.15;2.28;;;12.50;1.00;;;;;;7369150;19;20099;-71
2024/02/09 13:52:56;;;;;;;5.72;2.80;;;12.50;1.00;;;;;;7370592;19;20017;-70
2024/02/09 13:55:29;;;;;;;6.13;3.00;;;12.50;1.00;;;;;;7370171;19;20014;-71
2024/02/09 13:58:01;;;;;;;7.22;2.80;;;12.50;1.00;;;;;;7371800;19;20135;-71
2024/02/09 14:00:33;;;;;;;5.95;2.72;;;12.60;1.00;;;;;;7371140;19;20522;-71
2024/02/09 14:03:03;;;;;;;6.22;2.92;;;12.50;1.00;;;;;;7370816;19;20018;-71
2024/02/09 14:05:33;;;;;;;10.32;3.17;;;12.50;1.00;;;;;;7370449;19;20014;-72
2024/02/09 14:08:04;;;;;;;7.57;3.83;;;12.50;1.00;;;;;;7373331;19;20555;-72
2024/02/09 14:10:35;;;;;;;7.20;3.53;;;12.50;1.00;;;;;;7372625;19;20014;-72
2024/02/09 14:13:09;;;;;;;6.72;2.60;;;12.50;1.00;;;;;;7368027;19;20010;-70
2024/02/09 14:15:39;;;;;;;6.27;2.30;;;12.50;1.00;;;;;;7368555;19;20494;-72
2024/02/09 14:18:09;;;;;;;5.50;2.50;;;12.50;1.00;;;;;;7368203;19;20559;-71
2024/02/09 14:20:40;;;;;;;4.60;2.05;;;12.50;1.00;;;;;;7369681;19;20085;-71
2024/02/09 14:23:11;;;;;;;4.47;1.88;;;12.50;1.00;;;;;;7367324;19;20017;-71
2024/02/09 14:25:42;;;;;;;6.97;2.20;;;12.60;1.00;;;;;;7367557;19;20014;-70
2024/02/09 14:28:16;;;;;;;6.20;2.22;;;12.60;1.00;;;;;;7367302;19;20014;-71
2024/02/09 14:30:47;;;;;;;5.45;2.08;;;12.60;1.00;;;;;;7369814;19;20628;-71
2024/02/09 14:33:17;;;;;;;8.15;2.70;;;12.60;1.00;;;;;;7368756;19;20328;-72
2024/02/09 14:35:48;;;;;;;7.28;2.55;;;12.60;1.00;;;;;;7367057;19;20011;-71
2024/02/09 14:38:18;;;;;;;9.85;4.18;;;12.50;1.00;;;;;;7368122;19;20010;-71
2024/02/09 14:40:48;;;;;;;8.48;4.35;;;12.50;1.00;;;;;;7368230;19;20027;-71
2024/02/09 14:43:21;;;;;;;6.70;2.90;;;12.50;1.00;;;;;;7367384;19;20015;-71
2024/02/09 14:45:51;;;;;;;7.03;2.85;;;12.50;1.00;;;;;;7367377;19;20495;-71
2024/02/09 14:48:21;;;;;;;6.78;2.97;;;12.50;1.00;;;;;;7366720;19;20043;-70
2024/02/09 14:50:51;;;;;;;11.32;2.85;;;12.60;1.00;;;;;;7368539;19;20018;-71
2024/02/09 14:53:21;;;;;;;8.27;2.50;;;12.50;1.00;;;;;;7365693;19;20114;-71
2024/02/09 14:55:51;;;;;;;8.27;3.00;;;12.50;1.00;;;;;;7366593;19;20459;-71
2024/02/09 14:58:24;;;;;;;8.52;2.95;;;12.40;1.00;;;;;;7368649;19;20013;-71
2024/02/09 15:00:56;;;;;;;7.50;2.63;;;12.40;1.00;;;;;;7366579;19;20370;-72
2024/02/09 15:03:26;;;;;;;8.30;2.63;;;12.40;1.00;;;;;;7366860;19;20353;-71
2024/02/09 15:05:56;;;;;;;5.20;2.90;;;12.40;1.00;;;;;;7367146;19;20011;-72